Time;durP1;ratioP1;P1;durP2;ratioP2;P2;SDS_P1;SDS_P2;PMS_P1;PMS_P2;Temp;Humidity;BMP_temperature;BMP_pressure;BME280_temperature;BME280_humidity;BME280_pressure;Samples;Min_cycle;Max_cycle;Signal;HPM_P1;HPM_P2
2022/08/20 00:01:45;;;;;;;;;;;23.40;74.60;;;;;;5075080;28;20007;-58
2022/08/20 00:04:12;;;;;;;;;;;23.30;74.50;;;;;;5077819;28;19912;-58
2022/08/20 00:06:38;;;;;;;;;;;23.40;74.60;;;;;;5075808;28;20387;-58
2022/08/20 00:09:04;;;;;;;;;;;23.30;74.50;;;;;;5077427;28;19939;-58
2022/08/20 00:11:32;;;;;;;;;;;23.30;74.60;;;;;;5076815;28;19931;-58
2022/08/20 00:13:59;;;;;;;;;;;23.30;74.70;;;;;;5077253;28;19920;-59
2022/08/20 00:16:25;;;;;;;;;;;23.20;74.80;;;;;;5073420;28;20038;-65
2022/08/20 00:18:51;;;;;;;;;;;23.20;74.80;;;;;;5072539;28;19917;-58
2022/08/20 00:21:18;;;;;;;;;;;23.20;74.90;;;;;;5073952;28;20018;-58
2022/08/20 00:23:46;;;;;;;;;;;23.20;74.90;;;;;;5076824;28;20003;-65
2022/08/20 00:26:12;;;;;;;;;;;23.20;75.00;;;;;;5075058;28;19913;-65
2022/08/20 00:28:38;;;;;;;;;;;23.20;75.00;;;;;;5078008;28;19920;-64
2022/08/20 00:31:05;;;;;;;;;;;23.20;75.10;;;;;;5075829;28;19908;-64
2022/08/20 00:33:31;;;;;;;;;;;23.20;75.10;;;;;;5079745;28;19909;-64
2022/08/20 00:35:56;;;;;;;;;;;23.20;75.00;;;;;;5076642;28;19916;-65
2022/08/20 00:38:25;;;;;;;;;;;23.20;75.00;;;;;;5079138;28;20377;-59
2022/08/20 00:40:54;;;;;;;;;;;23.20;75.00;;;;;;5078833;28;19999;-59
2022/08/20 00:43:32;;;;;;;;;;;23.20;75.20;;;;;;5076594;28;19919;-59
2022/08/20 00:45:59;;;;;;;;;;;23.10;75.20;;;;;;5079622;28;19919;-59
2022/08/20 00:48:26;;;;;;;;;;;23.10;75.20;;;;;;5078764;28;20352;-65
2022/08/20 00:50:54;;;;;;;;;;;23.10;75.20;;;;;;5074143;28;19909;-65
2022/08/20 00:53:20;;;;;;;;;;;23.10;75.20;;;;;;5082128;28;19958;-65
2022/08/20 00:55:46;;;;;;;;;;;23.20;75.10;;;;;;5085655;28;19952;-65
2022/08/20 00:58:11;;;;;;;;;;;23.20;75.10;;;;;;5077334;28;19992;-59
2022/08/20 01:00:39;;;;;;;;;;;23.20;75.10;;;;;;5087045;28;19916;-59
2022/08/20 01:03:08;;;;;;;;;;;23.20;75.10;;;;;;5083547;28;19944;-58
2022/08/20 01:05:34;;;;;;;;;;;23.10;75.10;;;;;;5088346;28;20434;-65
2022/08/20 01:08:00;;;;;;;;;;;23.10;75.20;;;;;;5084699;28;19921;-65
2022/08/20 01:10:28;;;;;;;;;;;23.10;75.50;;;;;;5089051;28;20294;-58
2022/08/20 01:12:56;;;;;;;;;;;23.10;75.60;;;;;;5087842;28;19962;-65
2022/08/20 01:15:23;;;;;;;;;;;23.10;75.80;;;;;;5070777;28;19954;-59
2022/08/20 01:17:53;;;;;;;;;;;23.00;76.70;;;;;;5072522;28;19924;-59
2022/08/20 01:20:21;;;;;;;;;;;23.00;76.20;;;;;;5073118;28;19920;-59
2022/08/20 01:26:02;;;;;;;;;;;22.90;76.50;;;;;;5062823;28;19962;-58
2022/08/20 01:28:34;;;;;;;;;;;22.90;76.80;;;;;;5077228;28;20003;-65
2022/08/20 01:31:00;;;;;;;;;;;22.90;77.00;;;;;;5075192;28;19912;-59
2022/08/20 01:33:26;;;;;;;;;;;22.80;76.90;;;;;;5078095;28;19934;-64
2022/08/20 01:35:52;;;;;;;;;;;22.80;77.10;;;;;;5073390;28;19909;-59
2022/08/20 01:38:17;;;;;;;;;;;22.80;77.30;;;;;;5075623;28;19919;-59
2022/08/20 01:40:43;;;;;;;;;;;22.80;77.50;;;;;;5066316;28;20008;-64
2022/08/20 01:43:09;;;;;;;;;;;22.70;77.40;;;;;;5076561;28;20366;-64
2022/08/20 01:45:35;;;;;;;;;;;22.70;77.40;;;;;;5078715;28;19912;-64
2022/08/20 01:48:01;;;;;;;;;;;22.80;77.60;;;;;;5075300;28;19912;-59
2022/08/20 01:50:27;;;;;;;;;;;22.80;77.60;;;;;;5074934;28;20007;-59
2022/08/20 01:53:07;;;;;;;;;;;22.80;77.50;;;;;;5074101;28;19909;-59
2022/08/20 01:55:33;;;;;;;;;;;22.80;77.50;;;;;;5081568;28;19938;-64
2022/08/20 01:57:59;;;;;;;;;;;22.80;77.50;;;;;;5075246;28;19981;-64
2022/08/20 02:00:24;;;;;;;;;;;22.70;77.50;;;;;;5081583;28;19912;-64
2022/08/20 02:02:50;;;;;;;;;;;22.70;77.60;;;;;;5081016;28;19974;-58
2022/08/20 02:05:16;;;;;;;;;;;22.70;77.60;;;;;;5081078;28;19927;-58
2022/08/20 02:07:42;;;;;;;;;;;22.70;77.60;;;;;;5083833;28;19911;-59
2022/08/20 02:10:08;;;;;;;;;;;22.60;77.80;;;;;;5078853;28;19912;-58
2022/08/20 02:12:34;;;;;;;;;;;22.60;77.90;;;;;;5084294;28;20309;-58
2022/08/20 02:14:59;;;;;;;;;;;22.60;78.10;;;;;;5071452;28;19989;-58
2022/08/20 02:17:25;;;;;;;;;;;22.50;78.10;;;;;;5071020;28;19977;-58
2022/08/20 02:19:53;;;;;;;;;;;22.50;78.30;;;;;;5071442;28;19923;-59
2022/08/20 02:22:21;;;;;;;;;;;22.40;78.30;;;;;;5072141;28;19917;-59
2022/08/20 02:24:47;;;;;;;;;;;22.40;78.40;;;;;;5072246;28;19912;-58
2022/08/20 02:27:12;;;;;;;;;;;22.40;78.30;;;;;;5070015;28;19965;-58
2022/08/20 02:29:38;;;;;;;;;;;22.40;78.20;;;;;;5070702;28;20027;-59
2022/08/20 02:32:05;;;;;;;;;;;22.40;78.20;;;;;;5071287;28;19916;-60
2022/08/20 02:34:33;;;;;;;;;;;22.40;78.20;;;;;;5072582;28;20375;-59
2022/08/20 02:36:59;;;;;;;;;;;22.40;78.10;;;;;;5077621;28;20467;-60
2022/08/20 02:39:25;;;;;;;;;;;22.40;78.20;;;;;;5072065;28;19912;-60
2022/08/20 02:41:51;;;;;;;;;;;22.40;78.30;;;;;;5077389;28;19916;-64
2022/08/20 02:44:19;;;;;;;;;;;22.40;78.40;;;;;;5071826;28;19919;-64
2022/08/20 02:46:45;;;;;;;;;;;22.30;78.40;;;;;;5080393;28;19920;-64
2022/08/20 02:49:10;;;;;;;;;;;22.30;78.70;;;;;;5080848;28;19908;-64
2022/08/20 02:51:36;;;;;;;;;;;22.30;78.80;;;;;;5081360;28;20011;-60
2022/08/20 02:54:01;;;;;;;;;;;22.30;79.00;;;;;;5084641;28;20393;-60
2022/08/20 02:56:27;;;;;;;;;;;22.20;79.10;;;;;;5078227;28;19912;-65
2022/08/20 02:58:53;;;;;;;;;;;22.20;79.20;;;;;;5077758;28;19912;-64
2022/08/20 03:01:18;;;;;;;;;;;22.10;79.20;;;;;;5074882;28;20334;-69
2022/08/20 03:03:44;;;;;;;;;;;22.10;79.40;;;;;;5086579;28;20003;-58
2022/08/20 03:06:11;;;;;;;;;;;22.10;79.50;;;;;;5082406;28;20029;-59
2022/08/20 03:08:37;;;;;;;;;;;22.10;79.40;;;;;;5085817;28;20636;-59
2022/08/20 03:11:03;;;;;;;;;;;22.10;79.20;;;;;;5085065;28;19916;-61
2022/08/20 03:13:28;;;;;;;;;;;22.10;79.20;;;;;;5083133;28;19916;-58
2022/08/20 03:15:55;;;;;;;;;;;22.20;79.10;;;;;;5077288;28;19913;-58
2022/08/20 03:18:22;;;;;;;;;;;22.20;79.00;;;;;;5074833;28;19922;-58
2022/08/20 03:20:49;;;;;;;;;;;22.20;79.00;;;;;;5070583;28;19982;-58
2022/08/20 03:23:16;;;;;;;;;;;22.20;79.10;;;;;;5073736;28;19999;-58
2022/08/20 03:25:42;;;;;;;;;;;22.10;79.20;;;;;;5077987;28;20966;-64
2022/08/20 03:28:07;;;;;;;;;;;22.10;79.30;;;;;;5078266;28;19919;-64
2022/08/20 03:30:33;;;;;;;;;;;22.10;79.20;;;;;;5080698;28;19955;-64
2022/08/20 03:32:59;;;;;;;;;;;22.10;79.30;;;;;;5072953;28;19912;-64
2022/08/20 03:35:26;;;;;;;;;;;22.00;79.30;;;;;;5081450;28;19962;-64
2022/08/20 03:37:51;;;;;;;;;;;22.00;79.40;;;;;;5078662;28;19923;-58
2022/08/20 03:40:25;;;;;;;;;;;22.00;79.50;;;;;;5082615;28;19912;-58
2022/08/20 03:42:53;;;;;;;;;;;22.00;79.50;;;;;;5080272;28;19915;-58
2022/08/20 03:45:20;;;;;;;;;;;22.00;79.40;;;;;;5083823;28;19920;-58
2022/08/20 03:47:46;;;;;;;;;;;22.00;79.40;;;;;;5080108;28;20366;-58
2022/08/20 03:50:12;;;;;;;;;;;22.00;79.40;;;;;;5082861;28;19916;-58
2022/08/20 03:52:38;;;;;;;;;;;22.00;79.30;;;;;;5084571;28;19917;-58
2022/08/20 03:55:04;;;;;;;;;;;22.00;79.20;;;;;;5081014;28;19912;-58
2022/08/20 03:57:30;;;;;;;;;;;22.10;79.20;;;;;;5074980;28;19912;-58
2022/08/20 03:59:56;;;;;;;;;;;22.00;79.20;;;;;;5075245;28;19923;-58
2022/08/20 04:02:22;;;;;;;;;;;22.00;79.20;;;;;;5089709;28;19962;-58
2022/08/20 04:04:47;;;;;;;;;;;22.00;79.10;;;;;;5084559;28;19951;-58
2022/08/20 04:07:16;;;;;;;;;;;22.00;79.10;;;;;;5089314;28;20237;-58
2022/08/20 04:09:42;;;;;;;;;;;22.00;79.10;;;;;;5083427;28;20007;-58
2022/08/20 04:12:11;;;;;;;;;;;22.00;79.10;;;;;;5091366;28;19962;-58
2022/08/20 04:14:36;;;;;;;;;;;22.00;79.20;;;;;;5079848;28;19923;-58
2022/08/20 04:17:06;;;;;;;;;;;22.00;79.20;;;;;;5076051;28;19920;-58
2022/08/20 04:19:32;;;;;;;;;;;22.00;79.30;;;;;;5073850;28;19913;-59
2022/08/20 04:21:57;;;;;;;;;;;22.00;79.40;;;;;;5074599;28;19955;-59
2022/08/20 04:24:23;;;;;;;;;;;21.90;79.50;;;;;;5074540;28;19908;-58
2022/08/20 04:26:49;;;;;;;;;;;22.00;79.40;;;;;;5073698;28;19913;-58
2022/08/20 04:29:14;;;;;;;;;;;21.90;79.30;;;;;;5067256;28;19965;-58
2022/08/20 04:31:40;;;;;;;;;;;22.00;79.20;;;;;;5075660;28;19915;-58
2022/08/20 04:34:08;;;;;;;;;;;21.90;79.20;;;;;;5073436;28;19908;-58
2022/08/20 04:36:34;;;;;;;;;;;21.90;79.20;;;;;;5075071;28;19922;-58
2022/08/20 04:39:00;;;;;;;;;;;21.90;79.20;;;;;;5077629;28;20003;-58
2022/08/20 04:41:26;;;;;;;;;;;21.90;79.30;;;;;;5077075;28;19908;-58
2022/08/20 04:43:52;;;;;;;;;;;21.90;79.40;;;;;;5081058;28;20371;-58
2022/08/20 04:46:18;;;;;;;;;;;21.90;79.60;;;;;;5077463;28;19913;-58
2022/08/20 04:48:44;;;;;;;;;;;21.90;79.60;;;;;;5082093;28;19958;-58
2022/08/20 04:51:13;;;;;;;;;;;21.80;79.50;;;;;;5079423;28;20291;-58
2022/08/20 04:53:39;;;;;;;;;;;21.90;79.50;;;;;;5083233;28;19965;-58
2022/08/20 04:56:06;;;;;;;;;;;21.90;79.50;;;;;;5081496;28;20351;-58
2022/08/20 04:58:35;;;;;;;;;;;21.80;79.40;;;;;;5077578;28;20004;-58
2022/08/20 05:01:03;;;;;;;;;;;21.80;79.50;;;;;;5079703;28;20449;-59
2022/08/20 05:03:28;;;;;;;;;;;21.90;79.50;;;;;;5083032;28;20106;-58
2022/08/20 05:05:55;;;;;;;;;;;21.90;79.40;;;;;;5080195;28;19913;-59
2022/08/20 05:08:24;;;;;;;;;;;21.90;79.40;;;;;;5074265;28;20337;-58
2022/08/20 05:10:50;;;;;;;;;;;21.80;79.40;;;;;;5088324;28;20403;-58
2022/08/20 05:13:16;;;;;;;;;;;21.70;79.60;;;;;;5073668;28;19919;-58
2022/08/20 05:15:44;;;;;;;;;;;21.60;80.10;;;;;;5070141;28;20434;-59
2022/08/20 05:18:11;;;;;;;;;;;21.50;80.50;;;;;;5071438;28;20272;-59
2022/08/20 05:20:39;;;;;;;;;;;21.50;80.80;;;;;;5068581;28;19912;-59
2022/08/20 05:23:05;;;;;;;;;;;21.50;80.80;;;;;;5073460;28;20362;-59
2022/08/20 05:25:31;;;;;;;;;;;21.50;80.70;;;;;;5075543;28;19912;-60
2022/08/20 05:27:59;;;;;;;;;;;21.50;80.50;;;;;;5071084;28;19921;-58
2022/08/20 05:30:26;;;;;;;;;;;21.50;80.50;;;;;;5076201;28;20030;-58
2022/08/20 05:32:51;;;;;;;;;;;21.50;80.60;;;;;;5070870;28;20283;-58
2022/08/20 05:35:17;;;;;;;;;;;21.50;80.70;;;;;;5077252;28;19923;-59
2022/08/20 05:37:44;;;;;;;;;;;21.50;80.80;;;;;;5070716;28;19916;-59
2022/08/20 05:40:11;;;;;;;;;;;21.50;80.80;;;;;;5075704;28;20010;-59
2022/08/20 05:42:37;;;;;;;;;;;21.50;80.80;;;;;;5076495;28;19970;-58
2022/08/20 05:45:04;;;;;;;;;;;21.50;80.80;;;;;;5077594;28;20352;-59
2022/08/20 05:47:30;;;;;;;;;;;21.50;80.70;;;;;;5074885;28;19932;-59
2022/08/20 05:49:56;;;;;;;;;;;21.50;80.60;;;;;;5078523;28;19970;-64
2022/08/20 05:52:21;;;;;;;;;;;21.60;80.50;;;;;;5091118;28;19916;-64
2022/08/20 05:54:47;;;;;;;;;;;21.60;80.30;;;;;;5072352;28;19920;-65
2022/08/20 05:57:18;;;;;;;;;;;21.60;80.30;;;;;;5073474;28;19965;-64
2022/08/20 05:59:43;;;;;;;;;;;21.50;80.20;;;;;;5079017;28;20305;-64
2022/08/20 06:04:23;;;;;;;;;;;21.50;80.30;;;;;;5078701;28;19921;-64
2022/08/20 06:04:55;;;;;;;;;;;21.50;80.40;;;;;;5077669;28;19923;-59
2022/08/20 06:07:21;;;;;;;;;;;21.50;80.50;;;;;;5077800;28;19920;-59
2022/08/20 06:09:47;;;;;;;;;;;21.40;80.60;;;;;;5076174;28;19927;-59
2022/08/20 06:12:13;;;;;;;;;;;21.40;80.70;;;;;;5078184;28;20006;-60
2022/08/20 06:14:38;;;;;;;;;;;21.40;80.70;;;;;;5075768;28;19969;-59
2022/08/20 06:17:05;;;;;;;;;;;21.40;80.90;;;;;;5071570;28;19912;-64
2022/08/20 06:19:31;;;;;;;;;;;21.40;81.00;;;;;;5069877;28;20583;-60
2022/08/20 06:21:57;;;;;;;;;;;21.50;80.90;;;;;;5071797;28;19927;-59
2022/08/20 06:24:23;;;;;;;;;;;21.50;80.70;;;;;;5072951;28;20006;-60
2022/08/20 06:26:54;;;;;;;;;;;21.60;80.60;;;;;;5075813;28;20477;-64
2022/08/20 06:29:19;;;;;;;;;;;21.60;80.40;;;;;;5073626;28;19915;-60
2022/08/20 06:31:45;;;;;;;;;;;21.70;80.40;;;;;;5075206;28;19916;-59
2022/08/20 06:34:10;;;;;;;;;;;21.70;80.40;;;;;;5074994;28;20517;-64
2022/08/20 06:36:36;;;;;;;;;;;21.70;80.40;;;;;;5070277;28;19917;-64
2022/08/20 06:39:02;;;;;;;;;;;21.80;80.30;;;;;;5068611;28;19942;-59
2022/08/20 06:41:27;;;;;;;;;;;21.90;80.40;;;;;;5070296;28;19935;-59
2022/08/20 06:43:53;;;;;;;;;;;21.90;80.40;;;;;;5068754;28;19920;-59
2022/08/20 06:46:19;;;;;;;;;;;21.90;80.40;;;;;;5070512;28;19973;-59
2022/08/20 06:48:44;;;;;;;;;;;22.00;80.50;;;;;;5060429;28;19913;-64
2022/08/20 06:51:10;;;;;;;;;;;22.00;80.60;;;;;;5073324;28;20368;-64
2022/08/20 06:53:36;;;;;;;;;;;22.00;80.60;;;;;;5061560;28;20302;-59
2022/08/20 06:56:02;;;;;;;;;;;22.00;80.60;;;;;;5068831;28;19922;-64
2022/08/20 06:58:30;;;;;;;;;;;22.10;80.50;;;;;;5068329;28;19958;-65
2022/08/20 07:00:56;;;;;;;;;;;22.10;80.30;;;;;;5068611;28;20019;-65
2022/08/20 07:03:21;;;;;;;;;;;22.20;80.20;;;;;;5064576;28;19998;-64
2022/08/20 07:05:47;;;;;;;;;;;22.20;80.00;;;;;;5069098;28;19916;-65
2022/08/20 07:08:13;;;;;;;;;;;22.30;79.80;;;;;;5069534;28;19928;-65
2022/08/20 07:10:41;;;;;;;;;;;22.30;79.50;;;;;;5075616;28;20058;-59
2022/08/20 07:13:08;;;;;;;;;;;22.30;79.40;;;;;;5084486;28;19912;-64
2022/08/20 07:15:33;;;;;;;;;;;22.30;79.20;;;;;;5076547;28;20272;-64
2022/08/20 07:18:00;;;;;;;;;;;22.30;79.10;;;;;;5077690;28;19977;-65
2022/08/20 07:20:26;;;;;;;;;;;22.30;79.20;;;;;;5064273;28;19920;-65
2022/08/20 07:22:52;;;;;;;;;;;22.40;79.30;;;;;;5066518;28;20000;-65
2022/08/20 07:25:19;;;;;;;;;;;22.50;79.00;;;;;;5069460;28;19924;-65
2022/08/20 07:27:45;;;;;;;;;;;22.50;78.80;;;;;;5069412;28;19908;-65
2022/08/20 07:32:57;;;;;;;;;;;22.60;78.30;;;;;;5069705;28;20332;-65
2022/08/20 07:35:22;;;;;;;;;;;22.60;77.80;;;;;;5067770;28;19909;-65
2022/08/20 07:37:50;;;;;;;;;;;22.50;77.00;;;;;;5057710;28;19936;-65
2022/08/20 07:40:17;;;;;;;;;;;22.60;77.20;;;;;;5059176;28;19913;-64
2022/08/20 07:42:43;;;;;;;;;;;22.60;77.10;;;;;;5069283;28;19909;-59
2022/08/20 07:45:10;;;;;;;;;;;22.60;76.80;;;;;;5070223;28;20387;-59
2022/08/20 07:47:36;;;;;;;;;;;22.60;76.40;;;;;;5068900;28;19913;-59
2022/08/20 07:50:02;;;;;;;;;;;22.60;76.50;;;;;;5056713;28;19927;-59
2022/08/20 07:52:28;;;;;;;;;;;22.60;76.30;;;;;;5064881;28;20571;-60
2022/08/20 07:54:54;;;;;;;;;;;22.70;75.90;;;;;;5058044;28;19916;-59
2022/08/20 07:57:19;;;;;;;;;;;22.70;75.70;;;;;;5057711;28;19937;-59
2022/08/20 07:59:45;;;;;;;;;;;22.70;75.60;;;;;;5061398;28;20011;-65
2022/08/20 08:02:11;;;;;;;;;;;22.80;75.10;;;;;;5069838;28;19916;-64
2022/08/20 08:04:37;;;;;;;;;;;22.80;75.00;;;;;;5069010;28;19966;-60
2022/08/20 08:07:03;;;;;;;;;;;22.90;74.70;;;;;;5069009;28;19916;-59
2022/08/20 08:09:29;;;;;;;;;;;23.00;74.50;;;;;;5068867;28;20329;-60
2022/08/20 08:11:57;;;;;;;;;;;23.10;74.10;;;;;;5061731;28;19916;-59
2022/08/20 08:14:25;;;;;;;;;;;23.10;73.90;;;;;;5068258;28;20390;-60
2022/08/20 08:16:57;;;;;;;;;;;23.20;73.80;;;;;;5089548;28;20034;-60
2022/08/20 08:19:23;;;;;;;;;;;23.30;73.70;;;;;;5068600;28;20053;-65
2022/08/20 08:21:48;;;;;;;;;;;23.40;73.60;;;;;;5074175;28;19924;-65
2022/08/20 08:24:16;;;;;;;;;;;23.50;72.90;;;;;;5077681;28;20411;-65
2022/08/20 08:26:42;;;;;;;;;;;23.60;72.40;;;;;;5086988;28;20402;-60
2022/08/20 08:29:08;;;;;;;;;;;23.60;72.20;;;;;;5092461;28;19908;-60
2022/08/20 08:31:33;;;;;;;;;;;23.50;72.20;;;;;;5071432;28;19917;-60
2022/08/20 08:33:59;;;;;;;;;;;23.60;71.70;;;;;;5067538;28;19924;-60
2022/08/20 08:36:25;;;;;;;;;;;23.60;71.70;;;;;;5069494;28;19916;-60
2022/08/20 08:38:51;;;;;;;;;;;23.70;71.40;;;;;;5070427;28;19923;-60
2022/08/20 08:41:24;;;;;;;;;;;23.80;70.90;;;;;;5060798;28;19924;-60
2022/08/20 08:43:52;;;;;;;;;;;23.80;69.70;;;;;;5061604;28;19920;-60
2022/08/20 08:46:21;;;;;;;;;;;23.80;70.20;;;;;;5066456;28;20586;-61
2022/08/20 08:48:48;;;;;;;;;;;23.90;68.70;;;;;;5070169;28;19916;-61
2022/08/20 08:51:15;;;;;;;;;;;23.90;68.60;;;;;;5067799;28;19916;-60
2022/08/20 08:53:54;;;;;;;;;;;23.90;68.40;;;;;;5072116;28;19917;-60
2022/08/20 08:56:25;;;;;;;;;;;24.00;68.60;;;;;;5068919;28;19989;-58
2022/08/20 08:58:54;;;;;;;;;;;24.00;68.60;;;;;;5067409;28;20371;-57
2022/08/20 09:01:21;;;;;;;;;;;24.10;68.50;;;;;;5069792;28;19912;-58
2022/08/20 09:03:49;;;;;;;;;;;24.30;68.20;;;;;;5071341;28;20431;-58
2022/08/20 09:06:17;;;;;;;;;;;24.40;67.90;;;;;;5070595;28;19916;-58
2022/08/20 09:08:54;;;;;;;;;;;24.50;66.70;;;;;;5067522;28;20291;-63
2022/08/20 09:11:21;;;;;;;;;;;24.50;64.40;;;;;;5070140;28;19912;-63
2022/08/20 09:13:47;;;;;;;;;;;24.50;64.60;;;;;;5070696;28;19932;-59
2022/08/20 09:16:13;;;;;;;;;;;24.50;63.80;;;;;;5069619;28;19924;-59
2022/08/20 09:18:38;;;;;;;;;;;24.50;63.50;;;;;;5072435;28;19928;-58
2022/08/20 09:21:05;;;;;;;;;;;24.60;63.60;;;;;;5067916;28;19970;-58
2022/08/20 09:23:30;;;;;;;;;;;24.80;63.80;;;;;;5070534;28;20112;-59
2022/08/20 09:25:56;;;;;;;;;;;25.00;63.90;;;;;;5067942;28;19917;-59
2022/08/20 09:28:22;;;;;;;;;;;25.20;62.70;;;;;;5072042;28;19916;-60
2022/08/20 09:30:47;;;;;;;;;;;25.30;62.60;;;;;;5068849;28;20384;-60
2022/08/20 09:33:13;;;;;;;;;;;25.30;62.10;;;;;;5068045;28;19935;-59
2022/08/20 09:35:39;;;;;;;;;;;25.30;60.80;;;;;;5073859;28;19927;-59
2022/08/20 09:38:05;;;;;;;;;;;25.30;60.20;;;;;;5070287;28;19923;-64
2022/08/20 09:40:31;;;;;;;;;;;25.10;59.00;;;;;;5065655;28;19921;-59
2022/08/20 09:42:56;;;;;;;;;;;24.90;60.20;;;;;;5072076;28;19917;-59
2022/08/20 09:45:22;;;;;;;;;;;25.00;60.90;;;;;;5061034;28;19935;-59
2022/08/20 09:47:48;;;;;;;;;;;25.20;60.80;;;;;;5064917;28;19920;-59
2022/08/20 09:50:14;;;;;;;;;;;25.50;60.30;;;;;;5068230;28;19919;-59
2022/08/20 09:52:47;;;;;;;;;;;25.80;60.00;;;;;;5077067;28;19931;-60
2022/08/20 09:55:15;;;;;;;;;;;26.00;57.90;;;;;;5080656;28;19994;-60
2022/08/20 09:57:41;;;;;;;;;;;26.10;57.20;;;;;;5070160;28;19916;-60
2022/08/20 10:00:08;;;;;;;;;;;26.20;56.10;;;;;;5071056;28;19916;-60
2022/08/20 10:02:33;;;;;;;;;;;26.10;54.40;;;;;;5075599;28;20363;-65
2022/08/20 10:04:59;;;;;;;;;;;25.90;54.70;;;;;;5072087;28;20007;-65
2022/08/20 10:07:25;;;;;;;;;;;25.80;55.70;;;;;;5074026;28;19923;-64
2022/08/20 10:09:50;;;;;;;;;;;25.90;54.50;;;;;;5078419;28;19975;-65
2022/08/20 10:12:16;;;;;;;;;;;25.90;53.80;;;;;;5086523;28;19916;-66
2022/08/20 10:14:41;;;;;;;;;;;26.00;52.50;;;;;;5072755;28;19973;-65
2022/08/20 10:17:07;;;;;;;;;;;26.10;53.00;;;;;;5068956;28;20007;-66
2022/08/20 10:19:33;;;;;;;;;;;26.40;53.80;;;;;;5067795;28;19974;-65
2022/08/20 10:21:58;;;;;;;;;;;26.60;53.40;;;;;;5072885;28;19912;-65
2022/08/20 10:24:24;;;;;;;;;;;26.80;54.00;;;;;;5063626;28;19912;-66
2022/08/20 10:26:50;;;;;;;;;;;26.90;52.80;;;;;;5072387;28;19912;-65
2022/08/20 10:29:16;;;;;;;;;;;26.80;53.00;;;;;;5072180;28;20006;-59
2022/08/20 10:31:41;;;;;;;;;;;26.60;52.30;;;;;;5073840;28;19940;-60
2022/08/20 10:34:07;;;;;;;;;;;26.40;52.40;;;;;;5073968;28;19995;-60
2022/08/20 10:36:33;;;;;;;;;;;26.10;51.60;;;;;;5073059;28;19930;-60
2022/08/20 10:38:58;;;;;;;;;;;25.90;52.50;;;;;;5075963;28;19924;-60
2022/08/20 10:41:24;;;;;;;;;;;25.80;52.60;;;;;;5073902;28;19962;-60
2022/08/20 10:43:50;;;;;;;;;;;25.90;51.80;;;;;;5079050;28;19919;-60
2022/08/20 10:46:16;;;;;;;;;;;26.20;50.80;;;;;;5073640;28;19914;-60
2022/08/20 10:48:41;;;;;;;;;;;26.70;51.60;;;;;;5071237;28;19913;-60
2022/08/20 10:51:07;;;;;;;;;;;26.80;50.30;;;;;;5077209;28;19914;-60
2022/08/20 10:53:32;;;;;;;;;;;26.80;50.00;;;;;;5079802;28;19912;-59
2022/08/20 10:55:58;;;;;;;;;;;26.60;49.60;;;;;;5079295;28;19916;-59
2022/08/20 10:58:24;;;;;;;;;;;26.40;48.40;;;;;;5076522;28;19913;-60
2022/08/20 11:00:50;;;;;;;;;;;26.20;49.90;;;;;;5077441;28;19969;-60
2022/08/20 11:03:16;;;;;;;;;;;26.10;49.90;;;;;;5078188;28;20387;-59
2022/08/20 11:05:42;;;;;;;;;;;26.20;49.50;;;;;;5084108;28;20346;-60
2022/08/20 11:08:07;;;;;;;;;;;26.40;48.10;;;;;;5079610;28;19916;-60
2022/08/20 11:10:34;;;;;;;;;;;26.70;46.80;;;;;;5084149;28;19920;-60
2022/08/20 11:13:00;;;;;;;;;;;27.00;44.80;;;;;;5082713;28;19915;-60
2022/08/20 11:15:26;;;;;;;;;;;26.90;44.20;;;;;;5070028;28;19920;-60
2022/08/20 11:17:52;;;;;;;;;;;26.60;44.60;;;;;;5069147;28;20014;-60
2022/08/20 11:20:19;;;;;;;;;;;26.50;45.00;;;;;;5072016;28;20336;-60
2022/08/20 11:22:45;;;;;;;;;;;26.80;44.90;;;;;;5071692;28;20382;-61
2022/08/20 11:25:10;;;;;;;;;;;27.30;45.30;;;;;;5074952;28;19916;-60
2022/08/20 11:27:37;;;;;;;;;;;27.80;45.10;;;;;;5072512;28;19917;-60
2022/08/20 11:30:04;;;;;;;;;;;28.30;44.60;;;;;;5071598;28;19916;-60
2022/08/20 11:32:30;;;;;;;;;;;28.40;43.70;;;;;;5069069;28;19912;-60
2022/08/20 11:34:55;;;;;;;;;;;28.30;44.10;;;;;;5075483;28;19962;-66
2022/08/20 11:37:22;;;;;;;;;;;28.40;44.40;;;;;;5075390;28;19982;-60
2022/08/20 11:39:48;;;;;;;;;;;28.70;43.70;;;;;;5075101;28;19947;-60
2022/08/20 11:42:13;;;;;;;;;;;28.90;42.90;;;;;;5078904;28;20370;-60
2022/08/20 11:44:39;;;;;;;;;;;29.00;41.90;;;;;;5077837;28;19936;-60
2022/08/20 11:47:05;;;;;;;;;;;29.00;41.80;;;;;;5083083;28;19943;-60
2022/08/20 11:49:32;;;;;;;;;;;29.10;41.10;;;;;;5081072;28;19927;-61
2022/08/20 11:51:57;;;;;;;;;;;29.30;41.30;;;;;;5085875;28;19908;-60
2022/08/20 11:54:23;;;;;;;;;;;29.50;41.90;;;;;;5084626;28;19916;-60
2022/08/20 11:56:49;;;;;;;;;;;29.20;41.10;;;;;;5085809;28;19916;-60
2022/08/20 11:59:15;;;;;;;;;;;28.80;42.20;;;;;;5085359;28;19923;-60
2022/08/20 12:01:41;;;;;;;;;;;28.60;42.60;;;;;;5083741;28;19912;-60
2022/08/20 12:04:06;;;;;;;;;;;28.80;41.50;;;;;;5059131;28;19917;-60
2022/08/20 12:06:32;;;;;;;;;;;28.70;41.00;;;;;;5071785;28;19974;-60
2022/08/20 12:08:58;;;;;;;;;;;28.40;40.90;;;;;;5087733;28;19916;-60
2022/08/20 12:11:24;;;;;;;;;;;28.10;41.80;;;;;;5070289;28;20326;-60
2022/08/20 12:13:49;;;;;;;;;;;28.00;42.20;;;;;;5072869;28;19917;-60
2022/08/20 12:16:16;;;;;;;;;;;27.70;42.30;;;;;;5069322;28;19917;-60
2022/08/20 12:18:41;;;;;;;;;;;27.60;42.90;;;;;;5067485;28;19935;-61
2022/08/20 12:21:07;;;;;;;;;;;27.40;43.30;;;;;;5048295;28;19917;-60
2022/08/20 12:23:33;;;;;;;;;;;27.40;43.80;;;;;;5076765;28;19916;-60
2022/08/20 12:26:01;;;;;;;;;;;27.60;43.40;;;;;;5074962;28;19923;-60
2022/08/20 12:28:27;;;;;;;;;;;27.70;41.40;;;;;;5071912;28;20681;-60
2022/08/20 12:30:53;;;;;;;;;;;27.80;41.50;;;;;;5068536;28;20020;-60
2022/08/20 12:33:18;;;;;;;;;;;28.20;41.10;;;;;;5076991;28;19935;-66
2022/08/20 12:35:44;;;;;;;;;;;28.40;40.40;;;;;;5074771;28;20001;-66
2022/08/20 12:38:09;;;;;;;;;;;28.80;39.90;;;;;;5066493;28;20022;-66
2022/08/20 12:40:35;;;;;;;;;;;29.30;39.40;;;;;;5076045;28;19916;-66
2022/08/20 12:43:01;;;;;;;;;;;29.70;38.40;;;;;;5078102;28;20447;-66
2022/08/20 12:45:27;;;;;;;;;;;29.40;37.80;;;;;;5084906;28;20324;-66
2022/08/20 12:47:58;;;;;;;;;;;29.00;38.00;;;;;;5071285;28;19912;-66
2022/08/20 12:50:24;;;;;;;;;;;28.60;39.30;;;;;;5083670;28;19961;-66
2022/08/20 12:52:50;;;;;;;;;;;28.40;40.30;;;;;;5081266;28;20400;-66
2022/08/20 12:55:17;;;;;;;;;;;28.40;39.80;;;;;;5081236;28;20371;-66
2022/08/20 12:57:46;;;;;;;;;;;28.70;39.90;;;;;;5079847;28;19916;-66
2022/08/20 13:00:14;;;;;;;;;;;29.20;39.50;;;;;;5084765;28;19912;-67
2022/08/20 13:02:40;;;;;;;;;;;29.70;39.20;;;;;;5085744;28;20216;-67
2022/08/20 13:05:06;;;;;;;;;;;30.20;39.00;;;;;;5085059;28;19916;-66
2022/08/20 13:07:32;;;;;;;;;;;30.60;38.90;;;;;;5086662;28;20456;-66
2022/08/20 13:09:58;;;;;;;;;;;30.80;36.00;;;;;;5085835;28;19920;-66
2022/08/20 13:12:24;;;;;;;;;;;30.70;35.60;;;;;;5083961;28;20573;-67
2022/08/20 13:14:49;;;;;;;;;;;30.80;36.90;;;;;;5071947;28;19908;-66
2022/08/20 13:17:18;;;;;;;;;;;30.90;36.20;;;;;;5072807;28;19965;-69
2022/08/20 13:19:44;;;;;;;;;;;31.10;35.90;;;;;;5070653;28;19924;-67
2022/08/20 13:22:10;;;;;;;;;;;31.20;36.70;;;;;;5071926;28;19920;-66
2022/08/20 13:24:36;;;;;;;;;;;31.60;36.20;;;;;;5070521;28;19914;-65
2022/08/20 13:27:03;;;;;;;;;;;31.80;36.00;;;;;;5071135;28;19912;-66
2022/08/20 13:29:28;;;;;;;;;;;31.90;35.20;;;;;;5074633;28;19908;-67
2022/08/20 13:31:54;;;;;;;;;;;31.70;34.50;;;;;;5075590;28;20003;-66
2022/08/20 13:34:19;;;;;;;;;;;31.40;35.10;;;;;;5074398;28;20320;-66
2022/08/20 13:36:45;;;;;;;;;;;31.10;35.90;;;;;;5078194;28;19920;-66
2022/08/20 13:39:10;;;;;;;;;;;30.80;36.70;;;;;;5078438;28;19999;-66
2022/08/20 13:41:36;;;;;;;;;;;30.50;36.80;;;;;;5078703;28;19938;-66
2022/08/20 13:44:01;;;;;;;;;;;30.10;37.20;;;;;;5074960;28;19938;-68
2022/08/20 13:46:27;;;;;;;;;;;29.80;37.70;;;;;;5077617;28;19913;-67
2022/08/20 13:48:53;;;;;;;;;;;29.80;37.90;;;;;;5081675;28;20328;-67
2022/08/20 13:51:18;;;;;;;;;;;29.80;37.70;;;;;;5077267;28;19913;-67
2022/08/20 13:53:44;;;;;;;;;;;30.00;37.10;;;;;;5076565;28;19919;-67
2022/08/20 13:56:09;;;;;;;;;;;30.20;36.30;;;;;;5080855;28;19912;-67
2022/08/20 13:58:35;;;;;;;;;;;30.40;36.50;;;;;;5083486;28;19980;-67
2022/08/20 14:01:01;;;;;;;;;;;30.60;36.80;;;;;;5083491;28;20402;-65
2022/08/20 14:03:26;;;;;;;;;;;31.00;36.50;;;;;;5077996;28;19917;-67
2022/08/20 14:05:52;;;;;;;;;;;31.10;35.50;;;;;;5079133;28;19931;-66
2022/08/20 14:08:19;;;;;;;;;;;30.90;35.40;;;;;;5084270;28;20371;-67
2022/08/20 14:10:49;;;;;;;;;;;30.80;35.80;;;;;;5088526;28;19912;-65
2022/08/20 14:13:18;;;;;;;;;;;30.90;35.90;;;;;;5085997;28;19924;-65
2022/08/20 14:15:44;;;;;;;;;;;31.20;34.20;;;;;;5070276;28;19908;-67
2022/08/20 14:18:10;;;;;;;;;;;31.40;34.60;;;;;;5070766;28;19923;-67